Time;durP1;ratioP1;P1;durP2;ratioP2;P2;SDS_P1;SDS_P2;PMS_P1;PMS_P2;Temp;Humidity;BMP_temperature;BMP_pressure;BME280_temperature;BME280_humidity;BME280_pressure;Samples;Min_cycle;Max_cycle;Signal;HPM_P1;HPM_P2
2022/05/26 03:01:41;;;;;;;22.57;21.23;;;10.20;99.90;;;;;;5612731;22;20231;-73
2022/05/26 03:04:15;;;;;;;22.27;21.13;;;10.10;99.90;;;;;;5002055;28;20213;-73
2022/05/26 03:06:47;;;;;;;11.43;10.93;;;10.10;99.90;;;;;;5013158;28;20183;-72
2022/05/26 03:09:14;;;;;;;13.00;12.30;;;10.10;99.90;;;;;;5012185;28;20194;-74
2022/05/26 03:11:46;;;;;;;11.13;9.93;;;10.10;99.90;;;;;;5013276;28;20671;-73
2022/05/26 03:14:14;;;;;;;11.40;10.63;;;10.10;99.90;;;;;;5012291;28;20227;-73
2022/05/26 03:16:41;;;;;;;21.60;20.30;;;10.00;99.90;;;;;;5034396;23;20242;-76
2022/05/26 03:19:07;;;;;;;20.40;18.80;;;9.90;99.90;;;;;;4995469;28;20233;-76
2022/05/26 03:21:33;;;;;;;12.47;11.87;;;9.80;99.90;;;;;;5014807;28;20175;-76
2022/05/26 03:23:59;;;;;;;10.40;9.80;;;9.70;99.90;;;;;;5013558;28;20215;-76
2022/05/26 03:26:25;;;;;;;9.93;9.20;;;9.60;99.90;;;;;;5024764;28;20196;-78
2022/05/26 03:28:50;;;;;;;7.57;7.03;;;9.60;99.90;;;;;;5015274;28;20179;-76
2022/05/26 03:31:16;;;;;;;18.87;17.83;;;9.70;99.90;;;;;;5015864;28;20220;-76
2022/05/26 03:41:56;;;;;;;6.93;6.43;;;9.70;99.90;;;;;;5032892;28;20190;-77
2022/05/26 03:44:24;;;;;;;6.43;6.07;;;9.70;99.90;;;;;;5015413;28;20662;-75
2022/05/26 03:46:50;;;;;;;6.70;6.37;;;9.70;99.90;;;;;;5020318;28;20547;-77
2022/05/26 03:49:16;;;;;;;6.57;6.27;;;9.70;99.90;;;;;;5038243;28;20221;-75
2022/05/26 03:51:42;;;;;;;7.13;6.73;;;9.70;99.90;;;;;;5038399;28;20229;-77
2022/05/26 03:54:07;;;;;;;8.77;8.37;;;9.80;99.90;;;;;;5020318;28;20207;-78
2022/05/26 03:56:33;;;;;;;14.87;13.97;;;9.80;99.90;;;;;;5043977;28;20258;-76
2022/05/26 03:59:00;;;;;;;11.63;11.03;;;9.80;99.90;;;;;;5042392;28;20171;-76
2022/05/26 04:01:27;;;;;;;10.73;9.93;;;9.80;99.90;;;;;;5043274;28;20274;-78
2022/05/26 04:03:55;;;;;;;9.37;8.93;;;9.90;99.90;;;;;;5023180;28;20213;-77
2022/05/26 04:06:22;;;;;;;11.33;10.63;;;9.90;99.90;;;;;;5022973;28;20226;-76
2022/05/26 04:08:47;;;;;;;7.10;6.53;;;10.00;99.90;;;;;;5038933;28;20204;-78
2022/05/26 04:11:13;;;;;;;7.70;7.23;;;10.00;99.90;;;;;;5019103;28;20674;-77
2022/05/26 04:13:39;;;;;;;9.00;8.07;;;10.10;99.90;;;;;;5017042;28;20246;-78
2022/05/26 04:16:06;;;;;;;9.73;9.23;;;10.20;99.90;;;;;;5017713;28;20242;-78
2022/05/26 04:18:32;;;;;;;15.17;14.20;;;10.30;99.90;;;;;;5022048;28;20265;-78
2022/05/26 04:21:09;;;;;;;23.13;21.93;;;10.30;99.90;;;;;;5036682;28;20179;-78
2022/05/26 04:23:35;;;;;;;17.00;16.20;;;10.30;99.90;;;;;;5018000;28;20187;-77
2022/05/26 04:26:02;;;;;;;12.67;12.07;;;10.40;99.90;;;;;;5017347;28;20199;-78
2022/05/26 04:28:28;;;;;;;19.73;18.63;;;10.50;99.90;;;;;;5036365;28;20182;-78
2022/05/26 04:30:54;;;;;;;21.77;20.63;;;10.60;99.90;;;;;;5037018;28;20654;-79
2022/05/26 04:33:20;;;;;;;21.90;20.70;;;10.60;99.90;;;;;;5021848;28;20222;-78
2022/05/26 04:35:46;;;;;;;9.87;9.30;;;10.70;99.90;;;;;;5021142;28;20203;-78
2022/05/26 04:38:11;;;;;;;15.43;14.63;;;10.80;99.90;;;;;;5019786;28;20183;-78
2022/05/26 04:40:39;;;;;;;46.47;43.93;;;10.90;99.90;;;;;;5019378;28;20242;-77
2022/05/26 04:43:06;;;;;;;44.53;42.33;;;11.00;99.90;;;;;;5035274;28;20186;-76
2022/05/26 04:45:32;;;;;;;18.83;17.80;;;11.00;99.90;;;;;;5035357;28;20214;-78
2022/05/26 04:47:58;;;;;;;14.73;13.87;;;11.20;99.90;;;;;;5016509;28;20186;-78
2022/05/26 04:50:24;;;;;;;5.07;4.87;;;11.30;99.90;;;;;;5018192;28;20210;-78
2022/05/26 04:52:50;;;;;;;4.93;4.63;;;11.50;99.90;;;;;;5035719;28;20183;-78
2022/05/26 04:55:16;;;;;;;20.63;19.53;;;11.80;99.90;;;;;;5030662;28;20257;-75
2022/05/26 04:57:42;;;;;;;27.97;26.47;;;12.20;99.90;;;;;;5039530;28;20175;-76
2022/05/26 05:00:12;;;;;;;42.03;39.70;;;12.30;99.90;;;;;;5029198;28;20183;-77
2022/05/26 05:02:38;;;;;;;27.30;25.87;;;12.80;99.90;;;;;;5034056;28;20251;-75
2022/05/26 05:05:06;;;;;;;15.73;14.77;;;13.20;99.90;;;;;;5044764;28;20229;-77
2022/05/26 05:07:32;;;;;;;7.63;6.87;;;13.60;99.90;;;;;;5021139;28;20182;-77
2022/05/26 05:09:57;;;;;;;14.33;13.43;;;14.10;99.90;;;;;;5022088;28;20179;-78
2022/05/26 05:12:26;;;;;;;33.27;31.57;;;14.70;99.90;;;;;;5038546;28;20197;-78
2022/05/26 05:14:54;;;;;;;16.80;15.90;;;15.30;99.90;;;;;;5018998;28;20213;-76
2022/05/26 05:17:22;;;;;;;5.77;5.20;;;16.00;99.90;;;;;;5034662;28;20249;-78
2022/05/26 05:19:49;;;;;;;5.33;5.03;;;16.60;99.90;;;;;;5020758;28;20178;-78
2022/05/26 05:22:26;;;;;;;21.07;19.77;;;17.10;99.90;;;;;;5035590;28;20187;-78
2022/05/26 05:25:16;;;;;;;25.97;24.33;;;17.60;99.90;;;;;;5017898;28;20289;-78
2022/05/26 05:27:53;;;;;;;12.03;11.27;;;17.90;99.90;;;;;;5035385;28;20542;-78
2022/05/26 05:30:56;;;;;;;6.63;6.40;;;18.10;99.90;;;;;;5035549;28;20186;-77
2022/05/26 05:33:41;;;;;;;8.50;7.80;;;18.20;99.90;;;;;;4957879;28;20888;-78
2022/05/26 05:36:12;;;;;;;31.37;29.80;;;18.50;99.90;;;;;;5017722;28;20644;-78
2022/05/26 05:38:40;;;;;;;16.90;15.97;;;19.10;99.90;;;;;;5035973;28;20183;-78
2022/05/26 05:41:07;;;;;;;22.80;21.57;;;19.50;99.90;;;;;;5039206;28;20290;-78
2022/05/26 05:43:35;;;;;;;22.90;21.88;;;19.90;99.90;;;;;;5034699;28;20269;-76
2022/05/26 05:46:01;;;;;;;12.20;11.43;;;20.30;99.90;;;;;;5035504;28;20748;-77
2022/05/26 05:48:27;;;;;;;6.45;6.13;;;20.50;99.90;;;;;;5022512;28;20187;-77
2022/05/26 05:50:53;;;;;;;5.00;4.53;;;20.70;99.90;;;;;;5043231;28;20189;-78
2022/05/26 05:53:19;;;;;;;4.20;4.10;;;20.80;99.90;;;;;;5023456;28;20214;-76
2022/05/26 05:55:45;;;;;;;4.18;4.03;;;21.00;99.90;;;;;;5039157;28;20202;-78
2022/05/26 05:58:11;;;;;;;7.78;4.28;;;21.30;99.90;;;;;;5023853;28;20643;-77
2022/05/26 06:00:41;;;;;;;5.63;5.32;;;21.50;99.90;;;;;;5025127;28;20228;-74
2022/05/26 06:03:06;;;;;;;4.55;4.22;;;21.80;99.90;;;;;;5014860;28;20183;-76
2022/05/26 06:05:33;;;;;;;3.78;3.58;;;22.10;99.90;;;;;;5014351;28;20590;-76
2022/05/26 06:07:59;;;;;;;3.47;3.30;;;22.40;99.70;;;;;;5034351;28;20209;-76
2022/05/26 06:10:26;;;;;;;3.55;3.25;;;22.70;98.70;;;;;;5017128;28;20277;-76
2022/05/26 06:12:51;;;;;;;3.97;3.78;;;22.80;98.20;;;;;;5016933;28;20324;-76
2022/05/26 06:15:18;;;;;;;3.55;3.35;;;22.90;98.00;;;;;;5034343;28;20725;-77
2022/05/26 06:17:44;;;;;;;3.92;3.83;;;23.10;97.50;;;;;;5034144;28;20175;-77
2022/05/26 06:20:11;;;;;;;5.35;4.55;;;23.50;95.60;;;;;;5016776;28;20237;-76
2022/05/26 06:22:40;;;;;;;5.65;5.43;;;23.60;93.90;;;;;;5034001;28;20186;-76
2022/05/26 06:25:07;;;;;;;5.38;4.88;;;23.10;93.30;;;;;;5016710;28;20277;-74
2022/05/26 06:30:19;;;;;;;4.32;3.92;;;22.00;93.80;;;;;;5035239;28;20187;-76
2022/05/26 06:38:25;;;;;;;4.70;4.50;;;20.40;97.00;;;;;;5033442;28;20182;-76
2022/05/26 06:40:51;;;;;;;7.68;7.28;;;20.10;98.90;;;;;;5016343;28;20653;-76
2022/05/26 06:43:18;;;;;;;6.68;6.28;;;19.90;99.70;;;;;;5017566;28;20183;-77
2022/05/26 06:45:46;;;;;;;3.75;3.50;;;19.60;99.90;;;;;;5018341;28;20289;-77
2022/05/26 06:48:12;;;;;;;4.73;4.00;;;19.50;99.90;;;;;;5034675;28;20629;-76
2022/05/26 06:50:38;;;;;;;3.63;3.33;;;19.40;99.90;;;;;;5016829;28;20187;-77
2022/05/26 06:53:05;;;;;;;4.07;3.70;;;19.30;99.90;;;;;;5039355;28;20187;-78
2022/05/26 06:55:30;;;;;;;3.60;3.30;;;19.40;99.90;;;;;;5024638;28;20385;-79
2022/05/26 06:57:56;;;;;;;4.13;3.83;;;19.30;99.90;;;;;;5038653;28;20210;-77
2022/05/26 07:00:22;;;;;;;3.80;3.60;;;19.60;99.90;;;;;;5039751;28;20221;-78
2022/05/26 07:02:48;;;;;;;5.27;4.80;;;19.40;99.90;;;;;;5036312;28;20179;-78
2022/05/26 07:05:14;;;;;;;4.13;3.93;;;19.30;99.90;;;;;;5036082;28;20198;-76
2022/05/26 07:07:41;;;;;;;5.63;3.73;;;19.20;99.90;;;;;;5020061;28;20174;-79
2022/05/26 07:10:09;;;;;;;3.93;3.67;;;19.30;99.90;;;;;;5021022;28;20540;-79
2022/05/26 07:12:35;;;;;;;3.97;3.80;;;19.40;99.90;;;;;;5038876;28;20230;-78
2022/05/26 07:15:03;;;;;;;5.10;4.17;;;19.70;99.90;;;;;;5020567;28;20245;-78
2022/05/26 07:17:29;;;;;;;3.90;3.77;;;20.00;99.90;;;;;;5035617;28;20202;-78
2022/05/26 07:19:55;;;;;;;4.75;4.40;;;20.20;99.90;;;;;;5029307;28;20357;-79
2022/05/26 07:22:22;;;;;;;4.17;3.83;;;20.00;99.90;;;;;;4999227;28;20857;-81
2022/05/26 07:24:49;;;;;;;4.43;4.20;;;20.00;99.90;;;;;;5005703;28;20183;-81
2022/05/26 07:27:15;;;;;;;4.10;3.90;;;20.10;99.90;;;;;;5004366;28;20199;-81
2022/05/26 07:29:41;;;;;;;4.40;4.20;;;20.10;99.90;;;;;;5028988;28;20186;-81
2022/05/26 07:32:07;;;;;;;4.50;4.32;;;20.10;99.90;;;;;;5025213;28;20229;-81
2022/05/26 07:34:33;;;;;;;4.70;4.47;;;19.90;99.90;;;;;;5042997;28;20214;-81
2022/05/26 07:42:32;;;;;;;3.67;3.57;;;20.30;99.90;;;;;;5040604;28;20570;-80
2022/05/26 07:45:00;;;;;;;4.70;4.43;;;20.40;99.40;;;;;;4993059;28;20190;-80
2022/05/26 07:47:27;;;;;;;4.22;4.03;;;20.20;98.60;;;;;;5043720;28;20234;-80
2022/05/26 07:49:54;;;;;;;4.07;3.83;;;20.10;99.60;;;;;;5037440;28;20183;-80
2022/05/26 07:52:20;;;;;;;6.15;5.90;;;20.70;99.90;;;;;;5054843;28;20179;-79
2022/05/26 07:54:50;;;;;;;6.82;6.53;;;21.20;97.90;;;;;;5038724;28;20249;-80
2022/05/26 07:57:25;;;;;;;5.93;5.63;;;21.40;97.10;;;;;;5058022;28;20207;-80
2022/05/26 07:59:52;;;;;;;4.88;4.68;;;21.70;96.80;;;;;;5035171;28;20191;-81
2022/05/26 08:02:18;;;;;;;4.65;4.45;;;22.20;95.90;;;;;;5035927;28;20170;-80
2022/05/26 08:04:44;;;;;;;3.05;2.95;;;22.30;95.10;;;;;;5038717;28;20191;-79
2022/05/26 08:07:10;;;;;;;4.22;3.75;;;22.30;95.40;;;;;;5027109;28;20206;-81
2022/05/26 08:09:37;;;;;;;3.17;3.08;;;22.30;95.70;;;;;;5046629;28;20254;-81
2022/05/26 08:12:12;;;;;;;7.53;3.85;;;22.00;94.70;;;;;;5033902;28;20194;-81
2022/05/26 08:14:39;;;;;;;3.25;3.15;;;21.90;94.30;;;;;;5051705;28;20258;-81
2022/05/26 08:17:06;;;;;;;3.83;3.47;;;21.90;94.60;;;;;;5026255;28;20305;-81
2022/05/26 08:19:32;;;;;;;3.85;3.30;;;21.90;94.40;;;;;;5023669;28;20175;-81
2022/05/26 08:21:58;;;;;;;3.53;3.40;;;22.00;95.20;;;;;;5040911;28;20600;-81
2022/05/26 08:24:25;;;;;;;4.47;4.25;;;21.90;94.40;;;;;;5023119;28;20563;-81
2022/05/26 08:26:51;;;;;;;3.85;3.75;;;21.70;95.80;;;;;;5039550;28;20575;-81
2022/05/26 08:29:17;;;;;;;5.80;5.57;;;21.10;94.50;;;;;;5021105;28;20603;-81
2022/05/26 08:31:43;;;;;;;6.18;5.88;;;20.80;95.90;;;;;;5023267;28;20206;-81
2022/05/26 08:34:09;;;;;;;5.72;5.53;;;21.10;96.10;;;;;;5040768;28;20202;-81
2022/05/26 08:36:35;;;;;;;5.82;5.40;;;21.40;95.50;;;;;;5021869;28;20692;-81
2022/05/26 08:39:02;;;;;;;6.28;6.07;;;21.60;94.90;;;;;;5021134;28;20182;-81
2022/05/26 08:41:33;;;;;;;4.30;4.00;;;21.70;94.70;;;;;;5038778;28;20183;-80
2022/05/26 08:44:08;;;;;;;3.88;3.67;;;22.00;94.10;;;;;;5019907;28;20253;-81
2022/05/26 08:47:01;;;;;;;4.30;4.00;;;22.20;93.40;;;;;;5019604;28;20210;-83
2022/05/26 08:49:30;;;;;;;4.20;4.10;;;22.10;93.60;;;;;;5016661;28;20232;-80
2022/05/26 08:52:02;;;;;;;5.03;4.63;;;22.20;94.20;;;;;;5038637;28;20197;-80
2022/05/26 08:54:35;;;;;;;5.13;4.85;;;22.80;93.90;;;;;;5055222;28;20229;-80
2022/05/26 08:57:02;;;;;;;5.13;4.88;;;22.80;93.00;;;;;;5045609;28;20207;-81
2022/05/26 08:59:35;;;;;;;5.05;4.85;;;22.60;92.50;;;;;;5043776;28;20313;-81
2022/05/26 09:02:02;;;;;;;5.53;5.22;;;22.70;92.50;;;;;;5024210;28;20225;-81
2022/05/26 09:04:28;;;;;;;4.30;4.13;;;22.10;93.80;;;;;;5021122;28;20190;-81
2022/05/26 09:15:19;;;;;;;5.18;4.88;;;20.70;95.80;;;;;;5038115;28;20198;-81
2022/05/26 09:17:44;;;;;;;7.90;7.50;;;20.90;96.10;;;;;;5023335;23;20235;-76
2022/05/26 09:20:31;;;;;;;6.90;6.23;;;20.90;94.70;;;;;;5031387;28;20727;-77
2022/05/26 09:23:09;;;;;;;5.55;5.05;;;21.00;95.70;;;;;;5031264;28;20183;-76
2022/05/26 09:25:46;;;;;;;4.57;4.47;;;21.20;96.70;;;;;;5013536;28;20194;-76
2022/05/26 09:28:25;;;;;;;7.30;6.63;;;21.20;96.00;;;;;;5030811;28;20205;-76
2022/05/26 09:30:51;;;;;;;5.30;5.05;;;21.20;96.90;;;;;;5009562;28;20179;-77
2022/05/26 09:33:31;;;;;;;7.85;7.25;;;21.20;96.90;;;;;;4993897;28;20301;-76
2022/05/26 09:36:22;;;;;;;5.25;4.95;;;21.10;95.40;;;;;;5011478;28;20222;-76
2022/05/26 09:38:48;;;;;;;5.30;5.05;;;21.40;96.00;;;;;;4993655;28;20234;-74
2022/05/26 09:41:16;;;;;;;9.73;7.28;;;21.90;96.30;;;;;;4997682;28;20183;-77
2022/05/26 09:43:53;;;;;;;5.10;4.80;;;22.60;94.60;;;;;;5022690;28;20670;-77
2022/05/26 09:46:24;;;;;;;5.00;4.60;;;23.00;93.50;;;;;;5017411;28;20202;-74
2022/05/26 09:48:54;;;;;;;4.60;4.35;;;23.20;92.80;;;;;;5034666;28;20619;-74
2022/05/26 09:51:33;;;;;;;3.67;3.58;;;23.50;93.20;;;;;;5017638;28;20187;-75
2022/05/26 09:54:17;;;;;;;3.88;3.72;;;23.40;91.20;;;;;;5034899;28;20207;-74
2022/05/26 09:56:43;;;;;;;3.75;3.58;;;23.10;91.40;;;;;;5012825;28;20199;-74
2022/05/26 09:59:39;;;;;;;5.00;4.65;;;22.80;91.30;;;;;;4997517;28;20274;-76
2022/05/26 10:02:33;;;;;;;4.75;4.32;;;22.60;91.80;;;;;;5015128;28;20538;-75
2022/05/26 10:05:09;;;;;;;5.55;5.30;;;22.10;92.70;;;;;;5015086;28;20245;-75
2022/05/26 10:08:10;;;;;;;4.75;4.32;;;21.80;92.30;;;;;;4997086;28;20203;-75
2022/05/26 10:10:47;;;;;;;4.00;3.80;;;21.50;93.40;;;;;;5024910;28;20713;-75
2022/05/26 10:13:28;;;;;;;7.97;7.43;;;21.30;93.60;;;;;;5034463;28;20178;-75
2022/05/26 10:16:09;;;;;;;6.47;6.18;;;21.20;94.70;;;;;;5034466;28;20211;-75
2022/05/26 10:19:00;;;;;;;7.03;6.63;;;20.80;93.70;;;;;;5034296;28;20639;-75
2022/05/26 10:21:59;;;;;;;5.93;5.45;;;20.60;96.10;;;;;;5016933;28;20309;-75
2022/05/26 10:24:43;;;;;;;4.70;4.40;;;20.50;97.30;;;;;;5021373;28;20183;-75
2022/05/26 10:27:32;;;;;;;4.37;4.17;;;20.20;97.50;;;;;;5014437;28;20226;-75
2022/05/26 10:30:19;;;;;;;3.78;3.58;;;20.00;97.50;;;;;;4993682;28;20195;-75
2022/05/26 10:33:08;;;;;;;4.53;4.23;;;19.90;98.70;;;;;;4997019;28;20183;-75
2022/05/26 10:35:56;;;;;;;3.43;3.13;;;19.80;99.80;;;;;;4997578;28;20217;-76
2022/05/26 10:38:49;;;;;;;5.32;5.03;;;19.80;99.90;;;;;;5014172;28;20188;-76
2022/05/26 10:41:32;;;;;;;5.37;5.00;;;19.80;99.90;;;;;;5019172;28;20183;-76
2022/05/26 10:44:05;;;;;;;5.15;4.75;;;19.90;99.80;;;;;;5034400;28;20183;-76
2022/05/26 10:46:35;;;;;;;4.60;4.28;;;20.10;99.90;;;;;;5034662;28;20548;-76
2022/05/26 10:49:13;;;;;;;8.43;7.68;;;20.40;99.90;;;;;;5033997;28;20208;-76
2022/05/26 10:51:45;;;;;;;9.32;8.30;;;20.40;99.40;;;;;;5033302;28;20797;-76
2022/05/26 10:54:15;;;;;;;6.63;5.57;;;20.50;99.20;;;;;;4999427;28;20273;-75
2022/05/26 10:56:52;;;;;;;5.25;4.88;;;20.50;98.80;;;;;;5000180;28;20206;-74
2022/05/26 10:59:38;;;;;;;6.38;5.03;;;20.60;99.00;;;;;;5014261;28;20210;-75
2022/05/26 11:02:34;;;;;;;4.95;4.32;;;20.60;98.80;;;;;;4997001;28;20298;-76
2022/05/26 11:05:06;;;;;;;3.75;3.45;;;20.80;99.40;;;;;;4996683;28;20279;-76
2022/05/26 11:07:46;;;;;;;4.55;3.63;;;21.10;99.40;;;;;;5028869;28;20233;-75
2022/05/26 11:10:34;;;;;;;11.90;10.88;;;21.50;99.30;;;;;;5033722;28;20190;-75
2022/05/26 11:13:13;;;;;;;21.73;19.42;;;21.60;96.00;;;;;;5032360;28;20222;-75
2022/05/26 11:18:43;;;;;;;8.85;8.35;;;21.80;96.50;;;;;;5033316;28;20657;-76
2022/05/26 11:21:14;;;;;;;9.90;9.40;;;21.90;97.00;;;;;;5012622;28;20179;-76
2022/05/26 11:23:41;;;;;;;11.75;10.95;;;22.10;95.10;;;;;;4994064;28;20785;-75
2022/05/26 11:26:29;;;;;;;8.38;7.97;;;22.20;95.40;;;;;;4995299;28;20680;-75
2022/05/26 11:29:17;;;;;;;13.05;12.32;;;22.10;95.60;;;;;;5012462;28;20184;-76
2022/05/26 11:38:05;;;;;;;10.02;9.43;;;21.60;94.60;;;;;;5030873;28;20227;-76
2022/05/26 11:40:55;;;;;;;7.88;7.28;;;21.10;95.40;;;;;;5033153;28;20178;-76
2022/05/26 11:44:04;;;;;;;5.57;5.27;;;20.60;95.80;;;;;;5032528;28;20187;-75
2022/05/26 11:46:43;;;;;;;5.23;5.03;;;20.30;97.10;;;;;;4980108;28;20222;-76
2022/05/26 11:49:43;;;;;;;3.93;3.63;;;20.30;98.20;;;;;;5013061;28;20295;-76
2022/05/26 11:52:35;;;;;;;3.43;3.27;;;20.40;99.10;;;;;;5012950;28;20687;-75
2022/05/26 11:55:19;;;;;;;3.60;3.50;;;20.50;99.20;;;;;;5012945;28;20226;-76
2022/05/26 11:57:44;;;;;;;4.10;3.90;;;20.50;99.70;;;;;;5012583;28;20236;-75
2022/05/26 12:00:34;;;;;;;3.42;3.33;;;20.60;98.90;;;;;;5015385;28;20623;-75
2022/05/26 12:03:22;;;;;;;3.65;3.35;;;20.80;98.80;;;;;;5011969;28;20184;-76
2022/05/26 12:06:14;;;;;;;4.00;3.70;;;21.20;98.50;;;;;;5013142;28;20549;-75
2022/05/26 12:08:51;;;;;;;5.47;5.18;;;21.80;98.00;;;;;;4995077;28;20183;-76
2022/05/26 12:11:19;;;;;;;11.20;10.70;;;22.70;96.60;;;;;;5012626;28;20186;-75
2022/05/26 12:14:02;;;;;;;8.23;7.85;;;23.30;95.00;;;;;;5018345;28;20214;-75
2022/05/26 12:16:29;;;;;;;4.82;4.60;;;23.70;93.20;;;;;;5032565;28;20955;-75
2022/05/26 12:18:58;;;;;;;4.50;4.30;;;24.10;90.90;;;;;;5032019;28;20178;-75
2022/05/26 12:21:27;;;;;;;3.50;3.38;;;24.00;91.10;;;;;;5032370;28;20654;-74
2022/05/26 12:23:53;;;;;;;8.70;8.30;;;24.30;90.90;;;;;;5032274;28;20710;-76
2022/05/26 12:26:43;;;;;;;8.02;7.70;;;24.30;90.70;;;;;;5032162;28;20207;-76
2022/05/26 12:29:59;;;;;;;6.43;5.93;;;23.80;90.70;;;;;;4975419;28;20679;-75
2022/05/26 12:32:28;;;;;;;4.07;3.88;;;22.80;91.70;;;;;;4992931;28;20598;-77
2022/05/26 12:35:08;;;;;;;4.75;4.63;;;22.20;93.00;;;;;;4975936;28;20711;-76
2022/05/26 12:37:40;;;;;;;5.07;4.78;;;21.80;92.50;;;;;;4977137;28;20234;-74
2022/05/26 12:40:42;;;;;;;5.95;5.63;;;21.40;93.40;;;;;;4996630;28;20180;-74
2022/05/26 12:43:17;;;;;;;11.98;11.38;;;21.10;94.10;;;;;;5032698;28;20193;-75
2022/05/26 12:45:50;;;;;;;12.13;11.57;;;21.10;95.00;;;;;;4997644;28;20202;-70
2022/05/26 12:48:34;;;;;;;10.27;9.85;;;21.20;94.90;;;;;;5011689;28;20618;-70
2022/05/26 12:51:10;;;;;;;8.48;8.10;;;21.40;94.60;;;;;;5011863;28;20179;-70
2022/05/26 12:53:39;;;;;;;10.05;9.52;;;21.60;95.30;;;;;;5012072;28;20656;-71
2022/05/26 12:56:11;;;;;;;11.98;11.48;;;21.90;95.40;;;;;;4994176;28;20587;-70
2022/05/26 12:58:54;;;;;;;13.75;13.18;;;22.00;95.60;;;;;;5011470;28;20262;-70
2022/05/26 13:01:23;;;;;;;11.80;11.18;;;21.90;96.10;;;;;;5011486;28;20186;-71
2022/05/26 13:04:05;;;;;;;28.90;25.85;;;21.70;96.00;;;;;;4994348;28;20222;-70
2022/05/26 13:06:36;;;;;;;26.92;23.90;;;21.40;96.10;;;;;;5011661;28;20199;-71
2022/05/26 13:09:11;;;;;;;17.55;15.95;;;21.10;96.70;;;;;;5027983;28;20191;-75
2022/05/26 13:11:48;;;;;;;11.68;10.55;;;21.00;97.00;;;;;;5031394;28;20726;-75
2022/05/26 13:14:47;;;;;;;9.30;8.45;;;20.90;97.50;;;;;;5030912;28;20215;-75
2022/05/26 13:17:16;;;;;;;6.13;5.63;;;20.70;98.00;;;;;;5027613;28;20706;-74
2022/05/26 13:19:49;;;;;;;7.95;4.85;;;20.50;99.20;;;;;;5013453;28;20175;-74
2022/05/26 13:22:26;;;;;;;9.98;6.50;;;20.40;98.80;;;;;;4998305;28;20186;-74
2022/05/26 13:25:04;;;;;;;12.20;11.03;;;20.40;99.70;;;;;;5011693;28;20269;-74
2022/05/26 13:27:54;;;;;;;13.17;11.97;;;20.30;99.80;;;;;;5010895;28;20207;-74
2022/05/26 13:33:16;;;;;;;8.93;8.32;;;20.40;99.90;;;;;;5011176;28;20806;-74
2022/05/26 13:35:57;;;;;;;6.45;6.07;;;20.60;99.60;;;;;;5026427;28;20183;-75
2022/05/26 13:38:48;;;;;;;4.95;4.65;;;20.90;99.50;;;;;;5013218;28;20282;-75
2022/05/26 13:41:21;;;;;;;5.07;4.60;;;21.50;99.40;;;;;;5013382;28;20690;-74
2022/05/26 13:43:48;;;;;;;9.45;9.02;;;22.20;97.70;;;;;;5031110;28;20179;-74
2022/05/26 13:46:32;;;;;;;12.50;11.80;;;23.80;95.00;;;;;;5030726;28;20203;-75
2022/05/26 13:49:28;;;;;;;5.32;5.03;;;24.30;93.60;;;;;;5017066;28;20663;-74
2022/05/26 13:51:54;;;;;;;7.53;6.50;;;24.30;92.60;;;;;;5011659;28;20180;-74
2022/05/26 13:54:43;;;;;;;8.20;7.38;;;24.30;92.00;;;;;;5011232;28;20253;-74
2022/05/26 13:57:24;;;;;;;10.45;9.57;;;23.50;91.60;;;;;;5010690;28;20290;-74
2022/05/26 14:00:03;;;;;;;7.53;6.95;;;22.80;93.50;;;;;;4994031;28;20184;-73
2022/05/26 14:02:35;;;;;;;5.03;4.60;;;22.50;93.30;;;;;;5022457;28;20175;-73
2022/05/26 14:05:04;;;;;;;5.60;5.40;;;22.30;94.10;;;;;;5030801;28;20202;-73
2022/05/26 14:07:38;;;;;;;5.40;4.88;;;22.60;94.10;;;;;;5030701;28;20199;-73
2022/05/26 14:10:09;;;;;;;4.55;4.32;;;24.00;92.20;;;;;;5031007;28;20179;-73
2022/05/26 14:12:36;;;;;;;8.27;7.68;;;25.70;88.90;;;;;;5030842;28;20191;-73
2022/05/26 14:15:05;;;;;;;4.95;4.75;;;26.50;86.30;;;;;;5026454;28;20200;-73
2022/05/26 14:17:35;;;;;;;2.53;2.42;;;26.00;85.00;;;;;;5001131;28;20218;-73
2022/05/26 14:20:24;;;;;;;3.17;2.83;;;26.20;83.10;;;;;;5032329;28;20214;-73
2022/05/26 14:22:51;;;;;;;3.05;2.95;;;25.30;84.40;;;;;;5048222;28;20210;-73
2022/05/26 14:25:23;;;;;;;4.68;4.15;;;24.70;87.00;;;;;;5013817;28;20179;-73
2022/05/26 14:27:50;;;;;;;3.97;3.67;;;25.10;85.00;;;;;;5032975;28;20576;-74
2022/05/26 14:30:37;;;;;;;4.53;4.32;;;24.70;86.00;;;;;;5015596;28;20651;-73
2022/05/26 14:33:18;;;;;;;3.17;2.90;;;25.10;86.20;;;;;;4996752;28;20184;-72
2022/05/26 14:35:44;;;;;;;3.25;3.05;;;26.40;84.00;;;;;;5014331;28;20663;-73
2022/05/26 14:38:10;;;;;;;4.88;4.68;;;27.70;80.60;;;;;;5013921;28;20175;-73
2022/05/26 14:40:36;;;;;;;3.10;3.00;;;27.60;78.20;;;;;;5014464;28;20682;-73
2022/05/26 14:43:04;;;;;;;2.70;2.60;;;27.90;76.80;;;;;;5016508;28;20175;-74
2022/05/26 14:45:30;;;;;;;3.10;2.90;;;27.60;74.50;;;;;;5014601;28;20551;-73
2022/05/26 14:47:58;;;;;;;3.25;3.13;;;27.50;74.70;;;;;;5013794;28;20203;-74
2022/05/26 14:50:23;;;;;;;6.10;5.55;;;27.70;74.20;;;;;;5014075;28;20192;-74
2022/05/26 14:52:50;;;;;;;17.45;15.68;;;28.20;73.80;;;;;;5014045;28;20689;-74
2022/05/26 14:55:29;;;;;;;13.35;12.05;;;28.60;70.80;;;;;;5015991;28;20239;-73
2022/05/26 14:57:56;;;;;;;6.82;6.22;;;28.30;71.10;;;;;;5033139;28;20229;-74
2022/05/26 15:00:27;;;;;;;5.20;4.82;;;27.90;69.90;;;;;;5015996;28;20549;-73
2022/05/26 15:02:53;;;;;;;6.50;3.63;;;27.40;70.70;;;;;;5033668;28;20214;-73
2022/05/26 15:05:19;;;;;;;3.78;3.47;;;27.50;72.70;;;;;;5033747;28;20187;-73
2022/05/26 15:07:46;;;;;;;3.63;2.90;;;28.00;72.40;;;;;;5032491;28;20257;-73
2022/05/26 15:10:14;;;;;;;8.68;4.90;;;28.40;71.30;;;;;;5017329;28;20182;-73
2022/05/26 15:12:41;;;;;;;7.72;7.43;;;28.70;69.90;;;;;;5012252;28;20187;-74
2022/05/26 15:15:09;;;;;;;9.23;8.77;;;29.20;66.30;;;;;;5013481;28;20717;-73
2022/05/26 15:17:35;;;;;;;6.22;5.82;;;29.10;66.80;;;;;;5042753;23;20253;-78
2022/05/26 15:20:04;;;;;;;7.20;6.75;;;28.60;66.40;;;;;;5023310;28;20182;-79
2022/05/26 15:22:32;;;;;;;6.53;6.13;;;28.30;66.20;;;;;;5040605;28;20190;-78
2022/05/26 15:25:00;;;;;;;5.47;5.15;;;28.70;65.70;;;;;;5038924;28;20186;-79
2022/05/26 15:27:28;;;;;;;8.68;8.18;;;28.50;64.20;;;;;;5040970;28;20217;-78
2022/05/26 15:29:54;;;;;;;5.22;4.93;;;27.80;65.90;;;;;;5029650;28;20229;-78
2022/05/26 15:32:34;;;;;;;5.93;5.53;;;27.40;67.10;;;;;;5005412;28;20184;-78
2022/05/26 15:35:01;;;;;;;3.65;3.45;;;28.40;65.40;;;;;;5004779;28;20203;-78
2022/05/26 15:37:27;;;;;;;6.32;3.90;;;29.30;64.10;;;;;;5004804;28;20196;-79
2022/05/26 15:39:54;;;;;;;4.13;3.10;;;29.60;62.90;;;;;;5006126;28;20267;-79
2022/05/26 15:42:20;;;;;;;3.75;3.45;;;29.10;61.70;;;;;;5027004;28;20202;-77
2022/05/26 15:44:46;;;;;;;3.60;3.35;;;28.80;62.00;;;;;;5010121;28;20183;-78
2022/05/26 15:47:13;;;;;;;9.98;9.48;;;28.20;64.30;;;;;;5007612;28;20200;-78
2022/05/26 15:49:48;;;;;;;8.80;8.25;;;27.30;65.20;;;;;;5030073;28;20614;-78
2022/05/26 15:52:14;;;;;;;4.00;3.80;;;26.30;67.90;;;;;;5038264;28;20185;-79
2022/05/26 15:54:42;;;;;;;3.42;3.22;;;26.20;67.80;;;;;;5014942;28;20298;-78
2022/05/26 15:57:08;;;;;;;3.55;3.13;;;26.20;68.80;;;;;;5005222;28;20204;-77
2022/05/26 15:59:36;;;;;;;3.50;3.30;;;25.70;68.80;;;;;;5011551;28;20187;-77
2022/05/26 16:02:02;;;;;;;4.90;4.57;;;24.90;70.20;;;;;;5020132;28;20195;-78
2022/05/26 16:04:28;;;;;;;4.32;4.13;;;24.60;72.30;;;;;;5001779;28;20958;-78
2022/05/26 16:06:54;;;;;;;3.92;3.58;;;25.10;70.20;;;;;;5003226;28;20274;-79
2022/05/26 16:09:20;;;;;;;3.90;3.70;;;25.70;70.40;;;;;;5000057;28;20210;-79
2022/05/26 16:11:49;;;;;;;3.92;3.08;;;25.90;69.00;;;;;;5009948;28;20564;-78
2022/05/26 16:14:20;;;;;;;3.83;3.53;;;26.20;67.60;;;;;;5021686;28;20588;-79
2022/05/26 16:16:45;;;;;;;2.92;2.80;;;26.60;67.90;;;;;;5004471;28;20211;-80
2022/05/26 16:19:14;;;;;;;3.22;3.03;;;26.50;68.90;;;;;;4994657;28;20638;-79
2022/05/26 16:21:40;;;;;;;5.72;4.63;;;26.80;69.30;;;;;;4987652;28;20252;-79
2022/05/26 16:24:09;;;;;;;5.30;4.25;;;27.20;68.40;;;;;;5009732;28;20215;-80
2022/05/26 16:26:36;;;;;;;4.03;3.65;;;27.10;67.10;;;;;;5029933;28;20198;-80
2022/05/26 16:29:03;;;;;;;6.57;5.18;;;26.60;68.90;;;;;;5036018;28;20186;-81
2022/05/26 16:31:28;;;;;;;4.05;3.80;;;26.40;69.80;;;;;;5028184;28;20562;-78
2022/05/26 16:33:54;;;;;;;6.55;5.60;;;25.80;69.30;;;;;;5007671;28;20186;-81
2022/05/26 16:39:09;;;;;;;6.22;5.72;;;24.10;74.90;;;;;;5019128;28;20183;-78
2022/05/26 16:41:35;;;;;;;4.75;4.35;;;23.60;76.30;;;;;;5023727;28;20262;-79
2022/05/26 16:44:00;;;;;;;6.25;5.85;;;23.10;78.40;;;;;;5044645;28;20445;-79
2022/05/26 16:46:26;;;;;;;16.95;15.57;;;22.80;81.30;;;;;;5041139;28;20171;-82
2022/05/26 16:48:52;;;;;;;26.92;22.88;;;22.60;82.80;;;;;;5039876;28;20177;-80
2022/05/26 16:51:18;;;;;;;17.88;14.02;;;22.30;83.90;;;;;;5029418;28;20202;-80
2022/05/26 16:53:44;;;;;;;22.00;18.15;;;22.00;84.50;;;;;;5040738;28;20191;-80